Impacts METAR Board INFO
IDs:

KFLL - Ft Lauderdale-Hollyw, FL, US

Updated at: 0352 UTC 20 Feb 2018
Potential Impact None Slight Moderate High
Time19/15Z 19/16Z 19/17Z 19/18Z 19/19Z 19/20Z 19/21Z 19/22Z 19/23Z 20/00Z 20/01Z 20/02Z 20/03Z
VIS10 10 10 10 10 10 10 10 10 10 10 10 10
CIG60 25 60 47 -- 55 -- 65 60 32 70 75 75
CoverBKNBKNBKNBKNSCTBKNSCTOVCOVCOVCOVCOVCBKN
FltCatVFRMVFRVFRVFRVFRVFRVFRVFRVFRVFRVFRVFRVFR
WX--------------------------
WDir9080809090100100110100100110110110
WSpd17 19 15 17 15 19 16 17 15 15 18 20 16
WGst-- 22 -- -- -- -- -- -- -- -- 24 -- 23
Raw hourly METARs
KFLL 191453Z COR 09017KT 10SM FEW025 SCT045 BKN060 26/21 A3027 RMK AO2 SLP250 T02560211 51014
KFLL 191553Z 08019G22KT 10SM BKN025 BKN045 BKN060 26/21 A3028 RMK AO2 SLP253 T02560206
KFLL 191653Z 08015KT 10SM FEW025 FEW045 BKN060 26/21 A3027 RMK AO2 PK WND 09026/1623 SLP250 T02560211
KFLL 191753Z 09017KT 10SM FEW025 BKN047 BKN060 26/22 A3025 RMK AO2 SLP243 T02560217 10267 20233 58006
KFLL 191853Z 09015KT 10SM FEW025 SCT055 27/22 A3023 RMK AO2 SLP236 T02670217
KFLL 191953Z 10019KT 10SM SCT025 BKN055 27/21 A3021 RMK AO2 PK WND 10026/1921 SLP230 T02720206
KFLL 192053Z 10016KT 10SM FEW025 SCT037 SCT055 27/21 A3021 RMK AO2 SLP230 T02670206 56014
KFLL 192155Z 11017KT 10SM FEW027 SCT044 OVC065 26/22 A3022 RMK AO2 T02560217
KFLL 192253Z 10015KT 10SM FEW025 BKN060 OVC075 25/22 A3022 RMK AO2 SLP234 T02500217
KFLL 192353Z 10015KT 10SM SCT022 BKN032 BKN070 OVC250 25/22 A3023 RMK AO2 RAB11E21 SLP234 P0000 60000 T02500217 10272 20244 51005
KFLL 200053Z 11018G24KT 10SM SCT022 BKN070 OVC250 25/22 A3024 RMK AO2 SLP238 T02500222
KFLL 200153Z 11020KT 10SM FEW022 SCT049 OVC075 25/22 A3025 RMK AO2 SLP242 T02500217
KFLL 200253Z 11016G23KT 10SM FEW029 FEW039 BKN075 BKN250 25/22 A3025 RMK AO2 RAB19E33 SLP244 P0000 60000 T02500222 51009